createdAt,value
2022-10-03T00:02:46.816Z,5.13
2022-10-03T00:05:32.371Z,6.03
2022-10-03T00:08:10.275Z,4.70
2022-10-03T00:10:53.848Z,5.43
2022-10-03T00:13:28.538Z,5.25
2022-10-03T00:16:07.388Z,4.97
2022-10-03T00:18:47.482Z,5.47
2022-10-03T00:21:27.982Z,4.93
2022-10-03T00:24:06.059Z,5.47
2022-10-03T00:26:46.669Z,5.03
2022-10-03T00:29:46.921Z,5.53
2022-10-03T00:32:30.226Z,5.25
2022-10-03T00:35:20.117Z,5.47
2022-10-03T00:37:59.999Z,5.47
2022-10-03T00:40:48.309Z,5.68
2022-10-03T00:43:43.265Z,5.72
2022-10-03T00:46:35.723Z,6.05
2022-10-03T00:49:37.888Z,7.10
2022-10-03T00:52:20.180Z,7.28
2022-10-03T00:55:02.557Z,7.50
2022-10-03T00:57:59.365Z,6.95
2022-10-03T01:00:29.678Z,6.47
2022-10-03T01:03:15.287Z,7.22
2022-10-03T01:05:58.897Z,7.05
2022-10-03T01:08:41.197Z,7.03
2022-10-03T01:11:23.366Z,7.88
2022-10-03T01:14:04.293Z,6.63
2022-10-03T01:16:44.270Z,6.88
2022-10-03T01:19:34.166Z,7.22
2022-10-03T01:22:22.721Z,6.95
2022-10-03T01:24:58.464Z,8.10
2022-10-03T01:27:59.588Z,8.70
2022-10-03T01:30:36.285Z,8.70
2022-10-03T01:33:11.212Z,8.30
2022-10-03T01:35:48.941Z,8.25
2022-10-03T01:38:22.801Z,8.32
2022-10-03T01:40:59.045Z,8.13
2022-10-03T01:43:35.497Z,8.38
2022-10-03T01:46:16.774Z,8.60
2022-10-03T01:48:55.318Z,9.60
2022-10-03T01:51:29.804Z,8.52
2022-10-03T01:54:13.509Z,8.82
2022-10-03T01:56:47.807Z,9.15
2022-10-03T01:59:21.185Z,8.23
2022-10-03T02:01:56.170Z,8.20
2022-10-03T02:04:37.156Z,10.35
2022-10-03T02:07:14.064Z,9.88
2022-10-03T02:09:54.040Z,9.05
2022-10-03T02:12:30.637Z,9.77
2022-10-03T02:15:02.265Z,9.02
2022-10-03T02:17:47.989Z,8.50
2022-10-03T02:20:25.680Z,8.23
2022-10-03T02:22:56.365Z,8.30
2022-10-03T02:25:43.950Z,9.88
2022-10-03T02:28:30.337Z,8.77
2022-10-03T02:31:19.654Z,8.63
2022-10-03T02:34:07.773Z,8.88
2022-10-03T02:37:00.753Z,8.65
2022-10-03T02:40:01.518Z,9.13
2022-10-03T02:43:21.837Z,9.45
2022-10-03T02:46:22.953Z,8.85
2022-10-03T02:49:12.378Z,9.13
2022-10-03T02:52:16.217Z,9.20
2022-10-03T02:54:56.237Z,7.85
2022-10-03T02:58:05.534Z,9.73
2022-10-03T03:00:53.377Z,9.70
2022-10-03T03:03:58.222Z,9.55
2022-10-03T03:06:55.466Z,10.27
2022-10-03T03:09:54.517Z,10.73
2022-10-03T03:13:00.058Z,10.68
2022-10-03T03:16:05.442Z,11.15
2022-10-03T03:18:38.281Z,12.52
2022-10-03T03:21:21.677Z,12.18
2022-10-03T03:24:16.442Z,11.13
2022-10-03T03:27:19.451Z,11.13
2022-10-03T03:29:57.398Z,11.52
2022-10-03T03:32:39.974Z,11.40
2022-10-03T03:35:19.100Z,10.68
2022-10-03T03:37:57.969Z,10.40
2022-10-03T03:40:40.679Z,10.73
2022-10-03T03:43:41.797Z,9.48
2022-10-03T03:46:32.635Z,9.63
2022-10-03T03:49:31.745Z,9.10
2022-10-03T03:52:13.830Z,7.93
2022-10-03T03:57:41.526Z,8.18
2022-10-03T04:00:16.476Z,7.85
2022-10-03T04:03:01.810Z,8.63
2022-10-03T04:05:52.475Z,9.07
2022-10-03T04:08:40.230Z,9.27
2022-10-03T04:11:23.145Z,8.45
2022-10-03T04:14:50.003Z,10.20
2022-10-03T04:17:52.911Z,8.52
2022-10-03T04:20:34.670Z,10.50
2022-10-03T04:23:18.694Z,10.02
2022-10-03T04:26:18.091Z,9.93
2022-10-03T04:28:59.820Z,9.90
2022-10-03T04:31:42.131Z,10.43
2022-10-03T04:34:25.432Z,9.90
2022-10-03T04:39:49.906Z,10.68
2022-10-03T04:42:28.949Z,11.45
2022-10-03T04:45:19.824Z,10.75
2022-10-03T04:47:54.704Z,9.77
2022-10-03T04:50:35.101Z,11.45
2022-10-03T04:53:20.430Z,10.63
2022-10-03T04:55:51.091Z,10.32
2022-10-03T04:58:31.127Z,13.02
2022-10-03T05:01:11.261Z,11.52
2022-10-03T05:03:49.876Z,12.70
2022-10-03T05:06:33.129Z,11.32
2022-10-03T05:09:16.606Z,10.98
2022-10-03T05:11:59.698Z,8.77
2022-10-03T05:14:40.275Z,8.82
2022-10-03T05:17:19.750Z,8.90
2022-10-03T05:20:01.594Z,8.90
2022-10-03T05:22:47.012Z,8.82
2022-10-03T05:25:29.025Z,7.40
2022-10-03T05:28:08.082Z,8.93
2022-10-03T05:30:44.761Z,9.60
2022-10-03T05:33:23.226Z,9.98
2022-10-03T05:36:07.392Z,9.30
2022-10-03T05:39:16.893Z,10.55
2022-10-03T05:42:17.892Z,9.05
2022-10-03T05:44:46.546Z,7.78
2022-10-03T05:47:40.970Z,9.00
2022-10-03T05:50:36.236Z,8.02
2022-10-03T05:53:21.549Z,8.43
2022-10-03T05:56:00.156Z,9.18
2022-10-03T05:59:08.235Z,10.15
2022-10-03T06:01:57.635Z,10.40
2022-10-03T06:05:01.342Z,9.20
2022-10-03T06:07:31.713Z,10.23
2022-10-03T06:10:39.006Z,9.05
2022-10-03T06:13:16.473Z,9.95
2022-10-03T06:16:00.682Z,8.13
2022-10-03T06:18:55.805Z,9.30
2022-10-03T06:22:14.092Z,9.10
2022-10-03T06:25:09.487Z,6.50
2022-10-03T06:28:09.917Z,8.20
2022-10-03T06:30:55.549Z,6.68
2022-10-03T06:34:03.702Z,6.45
2022-10-03T06:36:48.709Z,5.80
2022-10-03T06:39:51.757Z,6.00
2022-10-03T06:42:44.830Z,5.18
2022-10-03T06:45:49.909Z,5.72
2022-10-03T06:48:50.138Z,5.13
2022-10-03T06:51:51.495Z,5.50
2022-10-03T06:54:59.024Z,5.57
2022-10-03T06:57:52.824Z,5.85
2022-10-03T07:00:23.430Z,4.63
2022-10-03T07:03:22.810Z,5.47
2022-10-03T07:06:30.149Z,5.40
2022-10-03T07:09:28.348Z,4.50
2022-10-03T07:12:20.189Z,4.63
2022-10-03T07:15:17.466Z,4.73
2022-10-03T07:18:24.256Z,5.20
2022-10-03T07:21:31.139Z,4.53
2022-10-03T07:24:19.535Z,4.20
2022-10-03T07:27:04.701Z,4.68
2022-10-03T07:29:59.757Z,3.92
2022-10-03T07:32:59.028Z,3.55
2022-10-03T07:36:03.805Z,3.47
2022-10-03T07:39:00.729Z,3.25
2022-10-03T07:41:47.840Z,3.50
2022-10-03T07:44:51.716Z,3.70
2022-10-03T07:47:55.032Z,2.90
2022-10-03T07:50:51.094Z,3.38
2022-10-03T07:53:52.618Z,3.88
2022-10-03T07:56:43.365Z,4.47
2022-10-03T07:59:43.724Z,3.90
2022-10-03T08:02:31.317Z,3.78
2022-10-03T08:05:20.922Z,3.13
2022-10-03T08:08:09.379Z,3.72
2022-10-03T08:11:07.972Z,2.90
2022-10-03T08:13:54.879Z,3.15
2022-10-03T08:16:46.718Z,3.00
2022-10-03T08:19:30.610Z,3.10
2022-10-03T08:22:11.837Z,3.08
2022-10-03T08:25:11.752Z,3.08
2022-10-03T08:27:53.654Z,2.80
2022-10-03T08:30:34.426Z,2.88
2022-10-03T08:33:48.862Z,3.90
2022-10-03T08:36:51.994Z,3.25
2022-10-03T08:39:44.930Z,2.45
2022-10-03T08:42:42.164Z,2.90
2022-10-03T08:45:36.943Z,2.92
2022-10-03T08:48:42.114Z,3.17
2022-10-03T08:51:40.607Z,2.90
2022-10-03T08:54:25.467Z,3.60
2022-10-03T08:57:08.474Z,3.67
2022-10-03T09:00:11.785Z,4.13
2022-10-03T09:03:31.532Z,3.10
2022-10-03T09:06:24.363Z,4.15
2022-10-03T09:09:12.999Z,3.97
2022-10-03T09:11:55.414Z,3.60
2022-10-03T09:14:36.347Z,3.90
2022-10-03T09:17:20.189Z,3.88
2022-10-03T09:20:12.728Z,5.22
2022-10-03T09:22:59.311Z,3.83
2022-10-03T09:25:45.726Z,3.90
2022-10-03T09:28:49.801Z,3.72
2022-10-03T09:31:35.642Z,4.00
2022-10-03T09:34:42.031Z,4.78
2022-10-03T09:37:44.425Z,4.80
2022-10-03T09:40:33.334Z,5.82
2022-10-03T09:43:35.125Z,5.25
2022-10-03T09:46:25.992Z,5.00
2022-10-03T09:49:35.249Z,5.45
2022-10-03T09:52:24.636Z,5.82
2022-10-03T09:55:08.418Z,5.75
2022-10-03T09:58:12.085Z,5.00
2022-10-03T10:01:03.792Z,5.55
2022-10-03T10:04:00.110Z,5.07
2022-10-03T10:06:40.923Z,4.57
2022-10-03T10:09:31.761Z,5.22
2022-10-03T10:12:14.847Z,5.40
2022-10-03T10:15:11.227Z,5.22
2022-10-03T10:18:24.361Z,4.03
2022-10-03T10:21:32.708Z,5.72
2022-10-03T10:24:28.175Z,5.57
2022-10-03T10:27:19.178Z,5.65
2022-10-03T10:30:12.045Z,5.40
2022-10-03T10:33:12.103Z,4.47
2022-10-03T10:36:17.371Z,4.85
2022-10-03T10:39:22.537Z,4.53
2022-10-03T10:42:38.993Z,3.88
2022-10-03T10:45:39.982Z,3.55
2022-10-03T10:49:13.626Z,3.40
2022-10-03T10:55:03.796Z,3.92
2022-10-03T10:58:07.192Z,4.00
2022-10-03T11:00:57.621Z,3.50
2022-10-03T11:04:00.028Z,3.17
2022-10-03T11:07:07.680Z,4.32
2022-10-03T11:10:10.641Z,4.82
2022-10-03T11:13:15.757Z,4.70
2022-10-03T11:16:35.110Z,4.82
2022-10-03T11:19:41.832Z,5.65
2022-10-03T11:22:49.203Z,5.85
2022-10-03T11:25:43.877Z,5.93
2022-10-03T11:28:53.500Z,5.75
2022-10-03T11:32:00.291Z,6.63
2022-10-03T11:35:16.489Z,5.88
2022-10-03T11:37:50.869Z,5.47
2022-10-03T11:40:33.950Z,6.10
2022-10-03T11:43:34.632Z,6.03
2022-10-03T11:46:21.009Z,7.15
2022-10-03T11:48:55.835Z,6.47
2022-10-03T11:51:42.250Z,6.10
2022-10-03T11:54:31.195Z,6.28
2022-10-03T11:57:07.192Z,5.32
2022-10-03T11:59:52.164Z,5.13
2022-10-03T12:02:40.094Z,5.65
2022-10-03T12:05:19.814Z,6.53
2022-10-03T12:08:13.714Z,18.08
2022-10-03T12:10:51.307Z,9.20
2022-10-03T12:13:23.970Z,6.43
2022-10-03T12:15:54.697Z,6.95
2022-10-03T12:18:34.580Z,6.93
2022-10-03T12:21:17.320Z,5.57
2022-10-03T12:24:01.057Z,5.75
2022-10-03T12:26:43.890Z,6.05
2022-10-03T12:31:50.269Z,5.38
2022-10-03T12:34:40.436Z,6.53
2022-10-03T12:37:27.315Z,5.80
2022-10-03T12:40:05.761Z,6.40
2022-10-03T12:42:43.296Z,5.45
2022-10-03T12:45:21.252Z,5.32
2022-10-03T12:48:01.439Z,5.03
2022-10-03T12:50:43.114Z,4.20
2022-10-03T12:53:32.698Z,4.68
2022-10-03T12:56:08.145Z,4.55
2022-10-03T12:58:55.978Z,4.45
2022-10-03T13:01:36.006Z,3.47
2022-10-03T13:04:14.825Z,4.40
2022-10-03T13:07:03.729Z,4.65
2022-10-03T13:10:03.324Z,5.10
2022-10-03T13:12:40.220Z,4.18
2022-10-03T13:15:44.342Z,3.50
2022-10-03T13:18:35.240Z,3.67
2022-10-03T13:21:33.463Z,3.33
2022-10-03T13:24:02.092Z,4.20
2022-10-03T13:26:48.377Z,3.45
2022-10-03T13:29:23.756Z,4.25
2022-10-03T13:32:25.150Z,4.40
2022-10-03T13:35:34.413Z,4.28
2022-10-03T13:38:26.304Z,4.35
2022-10-03T13:41:01.642Z,5.18
2022-10-03T13:43:36.672Z,4.32
2022-10-03T13:46:08.485Z,4.47
2022-10-03T13:51:15.978Z,4.13
2022-10-03T13:53:56.077Z,3.72
2022-10-03T13:56:40.085Z,4.03
2022-10-03T13:59:22.874Z,4.50
2022-10-03T14:04:50.251Z,5.38
2022-10-03T14:07:28.757Z,5.00
2022-10-03T14:10:13.181Z,4.30
2022-10-03T14:12:57.810Z,4.60
2022-10-03T14:15:34.556Z,4.30
2022-10-03T14:18:13.378Z,4.90
2022-10-03T14:21:21.419Z,4.43
2022-10-03T14:23:57.936Z,4.85
2022-10-03T14:26:30.784Z,4.95
2022-10-03T14:29:04.191Z,5.57
2022-10-03T14:31:40.036Z,3.55
2022-10-03T14:34:20.397Z,4.95
2022-10-03T14:36:55.155Z,5.28
2022-10-03T14:39:36.885Z,5.68
2022-10-03T14:42:28.577Z,4.90
2022-10-03T14:44:59.593Z,4.70
2022-10-03T14:47:35.557Z,4.00
2022-10-03T14:50:04.812Z,4.95
2022-10-03T14:52:41.502Z,5.07
2022-10-03T14:55:17.652Z,3.80
2022-10-03T14:58:09.716Z,4.25
2022-10-03T15:00:43.734Z,3.53
2022-10-03T15:03:22.435Z,3.00
2022-10-03T15:06:01.552Z,3.38
2022-10-03T15:08:39.250Z,3.40
2022-10-03T15:11:08.811Z,4.45
2022-10-03T15:13:42.332Z,4.10
2022-10-03T15:16:14.886Z,5.22
2022-10-03T15:18:53.769Z,5.55
2022-10-03T15:21:22.877Z,5.57
2022-10-03T15:23:57.238Z,5.13
2022-10-03T15:26:29.141Z,6.20
2022-10-03T15:31:35.789Z,6.47
2022-10-03T15:34:08.094Z,6.88
2022-10-03T15:36:39.674Z,6.88
2022-10-03T15:39:22.409Z,6.93
2022-10-03T15:41:54.552Z,7.82
2022-10-03T15:44:32.731Z,7.55
2022-10-03T15:47:05.378Z,7.95
2022-10-03T15:49:39.360Z,8.07
2022-10-03T15:52:16.745Z,8.52
2022-10-03T15:54:56.883Z,7.55
2022-10-03T15:57:40.032Z,7.45
2022-10-03T16:00:09.780Z,7.90
2022-10-03T16:02:42.337Z,8.15
2022-10-03T16:05:19.784Z,6.90
2022-10-03T16:07:58.637Z,8.07
2022-10-03T16:10:32.025Z,8.02
2022-10-03T16:13:06.356Z,8.25
2022-10-03T16:15:50.863Z,8.32
2022-10-03T16:18:46.885Z,7.38
2022-10-03T16:21:26.942Z,7.95
2022-10-03T16:23:58.837Z,7.40
2022-10-03T16:26:31.117Z,7.25
2022-10-03T16:29:09.801Z,6.47
2022-10-03T16:31:42.086Z,7.55
2022-10-03T16:36:44.739Z,7.68
2022-10-03T16:39:21.719Z,7.00
2022-10-03T16:41:55.393Z,7.25
2022-10-03T16:44:28.369Z,6.68
2022-10-03T16:47:02.662Z,6.32
2022-10-03T16:49:57.190Z,6.32
2022-10-03T16:52:33.609Z,5.85
2022-10-03T16:55:05.704Z,5.60
2022-10-03T16:57:45.559Z,6.05
2022-10-03T17:00:18.670Z,5.85
2022-10-03T17:02:48.772Z,7.05
2022-10-03T17:05:18.460Z,6.32
2022-10-03T17:07:49.287Z,6.68
2022-10-03T17:10:41.660Z,6.25
2022-10-03T17:13:16.927Z,5.20
2022-10-03T17:15:53.549Z,6.72
2022-10-03T17:18:27.088Z,6.07
2022-10-03T17:21:01.759Z,6.68
2022-10-03T17:23:35.936Z,5.95
2022-10-03T17:26:10.600Z,45.35
2022-10-03T17:28:44.483Z,6.53
2022-10-03T17:31:29.295Z,7.00
2022-10-03T17:34:05.111Z,5.97
2022-10-03T17:37:04.676Z,6.88
2022-10-03T17:39:39.890Z,6.60
2022-10-03T17:42:19.854Z,7.80
2022-10-03T17:44:59.607Z,6.95
2022-10-03T17:47:38.854Z,7.97
2022-10-03T17:50:14.240Z,6.85
2022-10-03T17:52:45.351Z,7.03
2022-10-03T17:55:19.581Z,6.38
2022-10-03T17:57:51.772Z,7.13
2022-10-03T18:03:01.841Z,6.72
2022-10-03T18:05:35.110Z,6.50
2022-10-03T18:08:07.496Z,6.57
2022-10-03T18:10:39.480Z,6.35
2022-10-03T18:13:18.040Z,6.78
2022-10-03T18:16:07.803Z,6.63
2022-10-03T18:19:10.353Z,6.57
2022-10-03T18:22:02.386Z,7.00
2022-10-03T18:24:47.289Z,6.47
2022-10-03T18:27:52.304Z,6.80
2022-10-03T18:30:24.460Z,6.82
2022-10-03T18:32:58.589Z,7.50
2022-10-03T18:35:30.153Z,7.32
2022-10-03T18:38:06.253Z,9.05
2022-10-03T18:40:37.774Z,8.85
2022-10-03T18:43:07.622Z,10.00
2022-10-03T18:45:44.404Z,11.95
2022-10-03T18:48:20.512Z,10.90
2022-10-03T18:50:59.518Z,11.18
2022-10-03T18:53:35.540Z,12.65
2022-10-03T18:56:07.562Z,12.95
2022-10-03T18:58:38.713Z,14.02
2022-10-03T19:01:15.592Z,14.25
2022-10-03T19:03:50.792Z,13.35
2022-10-03T19:06:22.883Z,14.00
2022-10-03T19:11:25.481Z,14.63
2022-10-03T19:14:01.099Z,14.43
2022-10-03T19:16:59.280Z,13.82
2022-10-03T19:19:35.461Z,14.98
2022-10-03T19:22:06.601Z,14.15
2022-10-03T19:24:57.287Z,13.07
2022-10-03T19:27:28.960Z,15.98
2022-10-03T19:29:58.741Z,14.65
2022-10-03T19:32:32.482Z,14.43
2022-10-03T19:35:05.911Z,13.80
2022-10-03T19:37:45.492Z,15.57
2022-10-03T19:40:33.927Z,15.57
2022-10-03T19:43:20.096Z,15.70
2022-10-03T19:45:50.827Z,14.90
2022-10-03T19:48:23.060Z,15.50
2022-10-03T19:53:21.104Z,14.32
2022-10-03T19:55:50.849Z,14.30
2022-10-03T19:58:24.271Z,14.68
2022-10-03T20:00:55.135Z,14.65
2022-10-03T20:03:30.188Z,12.68
2022-10-03T20:06:02.437Z,13.32
2022-10-03T20:08:39.806Z,14.25
2022-10-03T20:11:21.950Z,13.73
2022-10-03T20:13:50.975Z,12.43
2022-10-03T20:16:22.435Z,12.27
2022-10-03T20:18:53.480Z,12.60
2022-10-03T20:21:27.685Z,12.63
2022-10-03T20:23:56.633Z,12.07
2022-10-03T20:26:34.673Z,13.20
2022-10-03T20:29:16.297Z,12.55
2022-10-03T20:31:45.371Z,12.10
2022-10-03T20:34:16.733Z,13.38
2022-10-03T20:36:51.138Z,12.57
2022-10-03T20:39:22.902Z,11.90
2022-10-03T20:42:00.496Z,11.50
2022-10-03T20:44:55.339Z,11.30
2022-10-03T20:47:39.013Z,10.85
2022-10-03T20:50:15.241Z,10.70
2022-10-03T20:52:51.004Z,9.35
2022-10-03T20:55:22.800Z,9.13
2022-10-03T20:57:59.950Z,8.68
2022-10-03T21:00:29.841Z,8.63
2022-10-03T21:03:02.189Z,7.10
2022-10-03T21:08:06.526Z,7.07
2022-10-03T21:10:38.463Z,7.10
2022-10-03T21:13:09.737Z,7.15
2022-10-03T21:15:46.223Z,6.60
2022-10-03T21:18:22.084Z,7.07
2022-10-03T21:21:00.280Z,7.18
2022-10-03T21:23:33.150Z,8.20
2022-10-03T21:26:01.510Z,7.57
2022-10-03T21:28:32.617Z,7.85
2022-10-03T21:31:35.805Z,8.35
2022-10-03T21:34:08.710Z,10.13
2022-10-03T21:36:41.473Z,9.27
2022-10-03T21:39:21.359Z,9.93
2022-10-03T21:42:04.124Z,9.70
2022-10-03T21:44:50.309Z,9.98
2022-10-03T21:47:37.104Z,10.40
2022-10-03T21:50:08.264Z,10.18
2022-10-03T21:53:00.030Z,11.63
2022-10-03T21:55:53.062Z,10.60
2022-10-03T21:58:49.874Z,12.63
2022-10-03T22:01:26.092Z,12.30
2022-10-03T22:04:01.103Z,12.98
2022-10-03T22:06:35.780Z,12.32
2022-10-03T22:09:07.060Z,12.15
2022-10-03T22:11:43.194Z,12.55
2022-10-03T22:14:23.409Z,11.55
2022-10-03T22:17:00.211Z,12.50
2022-10-03T22:19:36.849Z,13.40
2022-10-03T22:22:16.955Z,12.15
2022-10-03T22:24:56.299Z,13.10
2022-10-03T22:27:33.066Z,12.88
2022-10-03T22:30:06.283Z,13.25
2022-10-03T22:32:41.519Z,11.80
2022-10-03T22:35:23.763Z,13.02
2022-10-03T22:37:52.137Z,12.52
2022-10-03T22:40:20.409Z,13.88
2022-10-03T22:42:55.109Z,11.60
2022-10-03T22:45:27.699Z,11.75
2022-10-03T22:50:30.113Z,11.68
2022-10-03T22:53:00.585Z,12.05
2022-10-03T22:55:31.121Z,12.18
2022-10-03T22:58:02.123Z,12.23
2022-10-03T23:00:35.484Z,13.95
2022-10-03T23:03:09.181Z,14.15
2022-10-03T23:05:59.145Z,12.85
2022-10-03T23:08:39.699Z,13.25
2022-10-03T23:11:15.504Z,11.48
2022-10-03T23:13:45.697Z,14.23
2022-10-03T23:16:37.242Z,13.43
2022-10-03T23:19:23.120Z,13.93
2022-10-03T23:21:53.598Z,11.93
2022-10-03T23:24:28.829Z,13.15
2022-10-03T23:27:09.965Z,13.48
2022-10-03T23:29:39.368Z,14.15
2022-10-03T23:32:09.179Z,13.25
2022-10-03T23:34:49.044Z,15.15
2022-10-03T23:37:43.255Z,13.13
2022-10-03T23:40:41.334Z,13.45
2022-10-03T23:43:34.077Z,12.77
2022-10-03T23:46:05.639Z,13.95
2022-10-03T23:48:43.603Z,13.68
2022-10-03T23:51:15.329Z,13.63
2022-10-03T23:53:47.080Z,14.25
2022-10-03T23:56:35.697Z,14.30
2022-10-03T23:59:18.121Z,11.57
